createdAt,value
2018-09-27T00:00:28.136Z,15.79
2018-09-27T00:02:56.937Z,15.92
2018-09-27T00:05:25.809Z,15.87
2018-09-27T00:07:54.581Z,15.90
2018-09-27T00:10:23.483Z,16.01
2018-09-27T00:12:52.315Z,15.88
2018-09-27T00:15:21.109Z,15.92
2018-09-27T00:17:50.028Z,15.82
2018-09-27T00:20:18.837Z,15.72
2018-09-27T00:22:47.726Z,15.87
2018-09-27T00:25:16.561Z,15.97
2018-09-27T00:27:45.372Z,15.87
2018-09-27T00:30:14.177Z,15.85
2018-09-27T00:32:43.011Z,15.81
2018-09-27T00:35:11.903Z,15.90
2018-09-27T00:37:40.753Z,15.84
2018-09-27T00:40:09.589Z,15.93
2018-09-27T00:42:38.413Z,15.86
2018-09-27T00:45:07.340Z,15.92
2018-09-27T00:47:36.287Z,15.77
2018-09-27T00:50:05.813Z,15.89
2018-09-27T00:52:34.670Z,15.82
2018-09-27T00:55:03.529Z,15.80
2018-09-27T00:57:32.330Z,15.80
2018-09-27T01:00:01.584Z,15.76
2018-09-27T01:02:30.384Z,15.78
2018-09-27T01:04:59.211Z,15.67
2018-09-27T01:07:28.031Z,15.68
2018-09-27T01:09:56.910Z,15.77
2018-09-27T01:12:25.785Z,15.76
2018-09-27T01:14:54.612Z,15.65
2018-09-27T01:17:23.427Z,15.66
2018-09-27T01:19:52.277Z,15.68
2018-09-27T01:22:21.109Z,15.73
2018-09-27T01:24:50.271Z,15.69
2018-09-27T01:27:19.039Z,15.75
2018-09-27T01:29:47.881Z,15.71
2018-09-27T01:32:16.672Z,15.57
2018-09-27T01:34:45.540Z,15.62
2018-09-27T01:37:14.382Z,15.54
2018-09-27T01:39:43.244Z,15.64
2018-09-27T01:42:12.344Z,15.56
2018-09-27T01:44:41.194Z,15.58
2018-09-27T01:47:10.019Z,15.55
2018-09-27T01:49:39.004Z,15.55
2018-09-27T01:52:07.980Z,15.56
2018-09-27T01:54:36.820Z,15.38
2018-09-27T01:57:05.820Z,15.54
2018-09-27T01:59:34.607Z,15.40
2018-09-27T02:02:03.519Z,15.35
2018-09-27T02:04:32.305Z,15.18
2018-09-27T02:07:01.128Z,15.31
2018-09-27T02:09:29.925Z,15.36
2018-09-27T02:11:58.748Z,15.29
2018-09-27T02:14:27.641Z,15.27
2018-09-27T02:16:56.509Z,15.30
2018-09-27T02:19:25.326Z,15.21
2018-09-27T02:21:54.173Z,15.23
2018-09-27T02:24:22.972Z,15.19
2018-09-27T02:26:52.379Z,15.18
2018-09-27T02:29:21.128Z,15.17
2018-09-27T02:31:49.971Z,15.23
2018-09-27T02:34:18.748Z,15.10
2018-09-27T02:36:47.567Z,15.13
2018-09-27T02:39:16.594Z,15.02
2018-09-27T02:41:45.443Z,14.94
2018-09-27T02:44:14.500Z,15.03
2018-09-27T02:46:43.411Z,14.98
2018-09-27T02:49:12.221Z,14.83
2018-09-27T02:51:41.105Z,14.92
2018-09-27T02:54:09.932Z,14.81
2018-09-27T02:56:38.732Z,14.71
2018-09-27T02:59:07.560Z,14.71
2018-09-27T03:01:36.368Z,14.71
2018-09-27T03:04:05.288Z,14.63
2018-09-27T03:06:34.323Z,14.65
2018-09-27T03:09:04.032Z,14.55
2018-09-27T03:11:32.809Z,14.56
2018-09-27T03:14:01.697Z,14.42
2018-09-27T03:16:30.539Z,14.51
2018-09-27T03:18:59.375Z,14.43
2018-09-27T03:21:28.141Z,14.50
2018-09-27T03:23:56.996Z,14.32
2018-09-27T03:26:25.800Z,14.19
2018-09-27T03:28:54.720Z,14.34
2018-09-27T03:31:23.493Z,14.29
2018-09-27T03:33:52.374Z,14.10
2018-09-27T03:36:21.458Z,14.09
2018-09-27T03:38:50.508Z,13.97
2018-09-27T03:41:19.457Z,13.96
2018-09-27T03:43:48.251Z,13.97
2018-09-27T03:46:17.109Z,13.89
2018-09-27T03:48:45.913Z,13.90
2018-09-27T03:51:14.801Z,13.80
2018-09-27T03:53:43.640Z,13.78
2018-09-27T03:56:12.474Z,13.79
2018-09-27T03:58:41.283Z,13.72
2018-09-27T04:01:10.133Z,13.72
2018-09-27T04:03:38.921Z,13.62
2018-09-27T04:06:07.828Z,13.57
2018-09-27T04:08:36.643Z,13.61
2018-09-27T04:11:05.669Z,13.51
2018-09-27T04:13:34.478Z,13.46
2018-09-27T04:16:03.918Z,13.51
2018-09-27T04:18:32.786Z,13.38
2018-09-27T04:21:01.635Z,13.34
2018-09-27T04:23:30.425Z,13.25
2018-09-27T04:25:59.247Z,13.26
2018-09-27T04:28:28.036Z,13.29
2018-09-27T04:30:56.983Z,13.34
2018-09-27T04:33:25.748Z,13.36
2018-09-27T04:35:54.601Z,13.21
2018-09-27T04:38:23.376Z,13.25
2018-09-27T04:40:52.204Z,13.02
2018-09-27T04:43:21.075Z,13.26
2018-09-27T04:45:50.042Z,13.24
2018-09-27T04:48:18.832Z,13.25
2018-09-27T04:50:47.730Z,13.16
2018-09-27T04:53:16.516Z,13.10
2018-09-27T04:55:45.363Z,13.08
2018-09-27T04:58:14.307Z,13.06
2018-09-27T05:00:43.108Z,13.12
2018-09-27T05:03:11.922Z,12.96
2018-09-27T05:05:40.780Z,12.97
2018-09-27T05:08:09.708Z,12.87
2018-09-27T05:10:38.575Z,12.94
2018-09-27T05:13:07.400Z,12.89
2018-09-27T05:15:36.243Z,12.99
2018-09-27T05:18:05.112Z,12.96
2018-09-27T05:20:34.020Z,12.92
2018-09-27T05:23:02.833Z,12.90
2018-09-27T05:25:31.636Z,12.84
2018-09-27T05:28:00.477Z,12.93
2018-09-27T05:30:29.272Z,12.96
2018-09-27T05:32:58.225Z,12.92
2018-09-27T05:35:27.018Z,12.81
2018-09-27T05:37:55.861Z,12.88
2018-09-27T05:40:24.689Z,12.94
2018-09-27T05:42:53.516Z,12.93
2018-09-27T05:45:22.451Z,12.94
2018-09-27T05:47:51.282Z,13.02
2018-09-27T05:50:20.298Z,12.98
2018-09-27T05:52:49.081Z,12.99
2018-09-27T05:55:17.908Z,13.08
2018-09-27T05:57:46.853Z,13.02
2018-09-27T06:00:15.700Z,12.92
2018-09-27T06:02:44.488Z,13.01
2018-09-27T06:05:13.359Z,12.77
2018-09-27T06:07:42.157Z,12.76
2018-09-27T06:10:11.072Z,13.03
2018-09-27T06:12:39.869Z,13.07
2018-09-27T06:15:08.829Z,13.07
2018-09-27T06:17:37.610Z,13.22
2018-09-27T06:20:06.544Z,13.20
2018-09-27T06:22:35.423Z,13.29
2018-09-27T06:25:04.364Z,13.29
2018-09-27T06:27:33.158Z,13.18
2018-09-27T06:30:02.045Z,13.28
2018-09-27T06:32:31.013Z,13.35
2018-09-27T06:35:00.054Z,13.48
2018-09-27T06:37:28.817Z,13.49
2018-09-27T06:39:57.807Z,13.60
2018-09-27T06:42:26.628Z,13.66
2018-09-27T06:44:55.405Z,13.75
2018-09-27T06:47:25.091Z,13.85
2018-09-27T06:49:53.951Z,13.83
2018-09-27T06:52:22.785Z,13.97
2018-09-27T06:54:51.703Z,13.98
2018-09-27T06:57:20.494Z,14.03
2018-09-27T06:59:49.409Z,14.15
2018-09-27T07:02:18.308Z,14.24
2018-09-27T07:04:47.144Z,14.15
2018-09-27T07:07:16.065Z,14.32
2018-09-27T07:09:44.860Z,14.45
2018-09-27T07:12:13.905Z,14.55
2018-09-27T07:14:42.633Z,14.55
2018-09-27T07:17:11.438Z,14.59
2018-09-27T07:19:40.396Z,14.63
2018-09-27T07:22:09.269Z,14.80
2018-09-27T07:24:38.117Z,15.02
2018-09-27T07:27:06.981Z,15.04
2018-09-27T07:29:35.794Z,15.10
2018-09-27T07:32:04.825Z,15.28
2018-09-27T07:34:33.601Z,15.12
2018-09-27T07:37:02.426Z,15.44
2018-09-27T07:39:31.284Z,15.58
2018-09-27T07:42:00.088Z,15.60
2018-09-27T07:44:28.931Z,15.67
2018-09-27T07:46:57.717Z,15.69
2018-09-27T07:49:26.616Z,15.86
2018-09-27T07:51:55.420Z,16.03
2018-09-27T07:54:24.284Z,15.95
2018-09-27T07:56:53.164Z,16.18
2018-09-27T07:59:21.979Z,16.30
2018-09-27T08:01:50.822Z,16.38
2018-09-27T08:04:19.723Z,16.32
2018-09-27T08:06:48.856Z,16.52
2018-09-27T08:09:18.042Z,16.48
2018-09-27T08:11:47.236Z,16.72
2018-09-27T08:14:16.028Z,16.90
2018-09-27T08:16:44.824Z,16.79
2018-09-27T08:19:13.740Z,16.90
2018-09-27T08:21:42.506Z,16.96
2018-09-27T08:24:11.487Z,17.04
2018-09-27T08:26:40.420Z,17.21
2018-09-27T08:29:09.262Z,17.38
2018-09-27T08:31:38.397Z,17.36
2018-09-27T08:34:07.486Z,17.59
2018-09-27T08:36:36.393Z,17.48
2018-09-27T08:39:08.942Z,17.45
2018-09-27T08:41:38.237Z,17.63
2018-09-27T08:44:08.031Z,17.43
2018-09-27T08:46:36.906Z,17.54
2018-09-27T08:49:07.844Z,17.70
2018-09-27T08:51:36.857Z,17.78
2018-09-27T08:54:05.769Z,17.80
2018-09-27T08:56:38.432Z,18.08
2018-09-27T08:59:07.265Z,18.22
2018-09-27T09:01:36.274Z,18.25
2018-09-27T09:04:05.216Z,18.28
2018-09-27T09:06:34.045Z,18.28
2018-09-27T09:09:03.804Z,18.33
2018-09-27T09:11:32.644Z,18.39
2018-09-27T09:14:01.499Z,18.28
2018-09-27T09:16:30.484Z,18.33
2018-09-27T09:18:59.339Z,18.46
2018-09-27T09:21:28.223Z,18.44
2018-09-27T09:23:56.981Z,18.43
2018-09-27T09:26:25.819Z,18.44
2018-09-27T09:28:54.842Z,18.45
2018-09-27T09:31:23.672Z,18.64
2018-09-27T09:33:52.502Z,18.77
2018-09-27T09:36:21.961Z,18.85
2018-09-27T09:38:50.758Z,18.97
2018-09-27T09:41:19.715Z,19.03
2018-09-27T09:43:48.540Z,19.01
2018-09-27T09:46:17.428Z,18.97
2018-09-27T09:48:46.344Z,19.00
2018-09-27T09:51:15.177Z,18.96
2018-09-27T09:53:44.081Z,19.18
2018-09-27T09:56:12.881Z,19.37
2018-09-27T09:58:41.747Z,19.43
2018-09-27T10:01:10.557Z,19.65
2018-09-27T10:03:39.388Z,19.52
2018-09-27T10:06:08.247Z,19.68
2018-09-27T10:08:37.355Z,19.56
2018-09-27T10:11:06.211Z,19.60
2018-09-27T10:13:35.068Z,19.76
2018-09-27T10:16:04.009Z,19.80
2018-09-27T10:18:33.235Z,19.76
2018-09-27T10:21:02.055Z,19.94
2018-09-27T10:23:30.901Z,19.99
2018-09-27T10:25:59.707Z,19.96
2018-09-27T10:28:28.532Z,20.04
2018-09-27T10:30:57.387Z,20.26
2018-09-27T10:33:26.214Z,20.30
2018-09-27T10:35:55.025Z,20.38
2018-09-27T10:38:24.144Z,20.37
2018-09-27T10:40:53.081Z,20.41
2018-09-27T10:43:21.969Z,20.34
2018-09-27T10:45:50.935Z,20.49
2018-09-27T10:48:19.716Z,20.53
2018-09-27T10:50:48.621Z,20.38
2018-09-27T10:53:17.416Z,20.54
2018-09-27T10:55:47.722Z,20.48
2018-09-27T10:58:16.807Z,20.70
2018-09-27T11:00:45.602Z,20.70
2018-09-27T11:03:14.441Z,20.63
2018-09-27T11:05:43.399Z,20.60
2018-09-27T11:08:12.341Z,20.71
2018-09-27T11:10:41.185Z,20.55
2018-09-27T11:13:09.988Z,20.86
2018-09-27T11:15:39.444Z,20.88
2018-09-27T11:18:08.241Z,21.05
2018-09-27T11:20:37.183Z,21.02
2018-09-27T11:23:06.034Z,21.01
2018-09-27T11:25:34.877Z,21.13
2018-09-27T11:28:03.680Z,21.09
2018-09-27T11:30:33.985Z,21.28
2018-09-27T11:33:02.978Z,21.07
2018-09-27T11:35:31.901Z,21.10
2018-09-27T11:38:00.695Z,21.24
2018-09-27T11:40:29.531Z,21.25
2018-09-27T11:42:58.495Z,21.28
2018-09-27T11:45:27.517Z,21.27
2018-09-27T11:47:56.372Z,21.30
2018-09-27T11:50:25.263Z,21.38
2018-09-27T11:52:54.113Z,21.48
2018-09-27T11:55:22.919Z,21.45
2018-09-27T11:57:51.893Z,21.31
2018-09-27T12:00:20.721Z,21.40
2018-09-27T12:02:49.565Z,21.30
2018-09-27T12:05:18.385Z,21.38
2018-09-27T12:07:47.253Z,21.48
2018-09-27T12:10:16.122Z,21.59
2018-09-27T12:12:45.244Z,21.66
2018-09-27T12:15:14.381Z,21.66
2018-09-27T12:17:43.271Z,21.75
2018-09-27T12:20:12.119Z,21.74
2018-09-27T12:22:41.285Z,21.67
2018-09-27T12:25:10.394Z,21.70
2018-09-27T12:27:39.284Z,21.78
2018-09-27T12:30:08.534Z,21.87
2018-09-27T12:32:37.448Z,21.80
2018-09-27T12:35:06.404Z,21.94
2018-09-27T12:37:35.281Z,22.02
2018-09-27T12:40:04.243Z,21.92
2018-09-27T12:42:33.095Z,21.92
2018-09-27T12:45:08.059Z,21.79
2018-09-27T12:47:37.029Z,21.89
2018-09-27T12:50:05.977Z,21.88
2018-09-27T12:52:34.977Z,21.86
2018-09-27T12:55:03.780Z,22.02
2018-09-27T12:57:32.617Z,22.14
2018-09-27T13:00:01.532Z,22.00
2018-09-27T13:02:30.402Z,22.23
2018-09-27T13:04:59.262Z,22.10
2018-09-27T13:07:28.079Z,22.06
2018-09-27T13:09:57.211Z,22.18
2018-09-27T13:12:25.954Z,22.18
2018-09-27T13:14:54.746Z,22.12
2018-09-27T13:17:23.584Z,22.31
2018-09-27T13:19:52.478Z,22.38
2018-09-27T13:22:21.265Z,22.30
2018-09-27T13:24:50.188Z,22.29
2018-09-27T13:27:18.958Z,22.21
2018-09-27T13:29:47.827Z,22.22
2018-09-27T13:32:16.637Z,22.36
2018-09-27T13:34:45.532Z,22.50
2018-09-27T13:37:14.417Z,22.55
2018-09-27T13:39:43.235Z,22.56
2018-09-27T13:42:12.081Z,22.56
2018-09-27T13:44:41.201Z,22.58
2018-09-27T13:47:10.078Z,22.44
2018-09-27T13:49:38.981Z,22.58
2018-09-27T13:52:07.900Z,22.49
2018-09-27T13:54:36.716Z,22.54
2018-09-27T13:57:05.777Z,22.61
2018-09-27T13:59:34.752Z,22.61
2018-09-27T14:02:03.676Z,22.46
2018-09-27T14:04:32.572Z,22.47
2018-09-27T14:07:01.428Z,22.42
2018-09-27T14:09:30.231Z,22.52
2018-09-27T14:11:59.090Z,22.53
2018-09-27T14:14:27.992Z,22.55
2018-09-27T14:16:56.851Z,22.48
2018-09-27T14:19:25.781Z,22.14
2018-09-27T14:21:54.644Z,22.31
2018-09-27T14:24:23.443Z,22.40
2018-09-27T14:26:52.377Z,22.69
2018-09-27T14:29:21.193Z,22.54
2018-09-27T14:31:50.277Z,22.43
2018-09-27T14:34:19.118Z,22.35
2018-09-27T14:36:48.024Z,22.23
2018-09-27T14:39:17.086Z,22.23
2018-09-27T14:41:45.985Z,22.25
2018-09-27T14:44:14.800Z,22.19
2018-09-27T14:46:43.618Z,22.12
2018-09-27T14:49:12.491Z,21.98
2018-09-27T14:51:41.452Z,22.06
2018-09-27T14:54:10.300Z,22.06
2018-09-27T14:56:39.126Z,21.98
2018-09-27T14:59:08.368Z,22.15
2018-09-27T15:01:37.164Z,21.88
2018-09-27T15:04:06.728Z,21.85
2018-09-27T15:06:35.579Z,21.96
2018-09-27T15:09:06.778Z,21.96
2018-09-27T15:11:35.926Z,21.89
2018-09-27T15:14:04.850Z,21.98
2018-09-27T15:16:34.300Z,21.99
2018-09-27T15:19:03.229Z,21.73
2018-09-27T15:21:32.060Z,21.67
2018-09-27T15:24:01.745Z,21.75
2018-09-27T15:26:31.193Z,21.78
2018-09-27T15:29:00.220Z,21.75
2018-09-27T15:31:29.193Z,21.71
2018-09-27T15:33:58.276Z,21.61
2018-09-27T15:36:27.180Z,21.36
2018-09-27T15:38:56.073Z,21.49
2018-09-27T15:41:24.964Z,21.28
2018-09-27T15:43:53.841Z,21.30
2018-09-27T15:46:22.716Z,21.38
2018-09-27T15:48:51.536Z,21.23
2018-09-27T15:51:20.493Z,21.28
2018-09-27T15:53:49.392Z,21.04
2018-09-27T15:56:18.275Z,21.13
2018-09-27T15:58:47.099Z,21.00
2018-09-27T16:01:15.987Z,20.97
2018-09-27T16:03:44.792Z,21.04
2018-09-27T16:06:13.773Z,20.84
2018-09-27T16:08:42.616Z,20.73
2018-09-27T16:11:11.489Z,20.84
2018-09-27T16:13:40.283Z,20.82
2018-09-27T16:16:09.200Z,20.64
2018-09-27T16:18:38.192Z,20.66
2018-09-27T16:21:07.141Z,20.57
2018-09-27T16:23:36.364Z,20.63
2018-09-27T16:26:05.245Z,20.44
2018-09-27T16:28:34.058Z,20.27
2018-09-27T16:31:02.992Z,20.29
2018-09-27T16:33:31.911Z,20.25
2018-09-27T16:36:00.848Z,20.08
2018-09-27T16:38:29.696Z,20.02
2018-09-27T16:40:58.493Z,19.98
2018-09-27T16:43:27.724Z,19.63
2018-09-27T16:45:56.904Z,19.59
2018-09-27T16:48:25.747Z,19.40
2018-09-27T16:50:54.600Z,19.33
2018-09-27T16:53:23.513Z,19.26
2018-09-27T16:55:52.496Z,19.38
2018-09-27T16:58:21.362Z,19.27
2018-09-27T17:00:50.281Z,19.21
2018-09-27T17:03:19.165Z,19.04
2018-09-27T17:05:47.962Z,19.00
2018-09-27T17:08:16.867Z,18.89
2018-09-27T17:10:45.902Z,18.89
2018-09-27T17:13:15.085Z,18.75
2018-09-27T17:15:43.861Z,18.61
2018-09-27T17:18:12.821Z,18.49
2018-09-27T17:20:41.977Z,18.45
2018-09-27T17:23:10.852Z,18.36
2018-09-27T17:25:39.696Z,18.26
2018-09-27T17:28:08.543Z,18.16
2018-09-27T17:30:37.383Z,18.03
2018-09-27T17:33:06.305Z,18.09
2018-09-27T17:35:35.223Z,18.02
2018-09-27T17:38:04.052Z,17.87
2018-09-27T17:40:33.281Z,17.83
2018-09-27T17:43:02.076Z,17.72
2018-09-27T17:45:30.903Z,17.71
2018-09-27T17:48:00.283Z,17.68
2018-09-27T17:50:29.117Z,17.59
2018-09-27T17:52:58.123Z,17.56
2018-09-27T17:55:27.857Z,17.56
2018-09-27T17:57:56.719Z,17.48
2018-09-27T18:00:25.513Z,17.30
2018-09-27T18:02:54.668Z,17.25
2018-09-27T18:05:23.468Z,17.22
2018-09-27T18:07:52.288Z,17.20
2018-09-27T18:10:21.225Z,17.12
2018-09-27T18:12:50.168Z,17.07
2018-09-27T18:15:20.180Z,17.09
2018-09-27T18:17:48.995Z,17.10
2018-09-27T18:20:17.886Z,17.06
2018-09-27T18:22:46.833Z,17.00
2018-09-27T18:25:15.953Z,16.85
2018-09-27T18:27:44.813Z,17.02
2018-09-27T18:30:13.704Z,16.99
2018-09-27T18:32:42.526Z,17.06
2018-09-27T18:35:11.416Z,16.87
2018-09-27T18:37:40.321Z,16.83
2018-09-27T18:40:09.262Z,16.76
2018-09-27T18:42:38.181Z,16.66
2018-09-27T18:45:09.020Z,16.55
2018-09-27T18:47:37.917Z,16.61
2018-09-27T18:50:07.440Z,16.49
2018-09-27T18:52:36.298Z,16.50
2018-09-27T18:55:28.351Z,16.49
2018-09-27T18:57:57.552Z,16.62
2018-09-27T19:00:26.414Z,16.46
2018-09-27T19:02:55.277Z,16.33
2018-09-27T19:05:24.099Z,16.25
2018-09-27T19:07:53.412Z,16.19
2018-09-27T19:10:22.292Z,16.05
2018-09-27T19:12:51.161Z,16.08
2018-09-27T19:15:20.230Z,15.96
2018-09-27T19:17:49.439Z,15.94
2018-09-27T19:20:18.280Z,15.92
2018-09-27T19:22:47.231Z,15.86
2018-09-27T19:25:16.091Z,15.78
2018-09-27T19:27:45.353Z,15.85
2018-09-27T19:30:14.185Z,15.93
2018-09-27T19:32:43.070Z,15.83
2018-09-27T19:35:12.315Z,15.80
2018-09-27T19:37:41.171Z,15.76
2018-09-27T19:40:09.983Z,15.73
2018-09-27T19:42:38.846Z,15.77
2018-09-27T19:45:07.744Z,15.83
2018-09-27T19:47:36.689Z,15.85
2018-09-27T19:50:05.725Z,15.85
2018-09-27T19:52:34.912Z,15.69
2018-09-27T19:55:04.198Z,15.60
2018-09-27T19:57:33.035Z,15.70
2018-09-27T20:00:02.011Z,15.53
2018-09-27T20:02:30.860Z,15.54
2018-09-27T20:04:59.777Z,15.68
2018-09-27T20:07:28.586Z,15.67
2018-09-27T20:09:57.504Z,15.55
2018-09-27T20:12:26.365Z,15.62
2018-09-27T20:14:55.276Z,15.58
2018-09-27T20:17:24.108Z,15.62
2018-09-27T20:19:52.968Z,15.56
2018-09-27T20:22:21.798Z,15.57
2018-09-27T20:24:50.725Z,15.57
2018-09-27T20:27:19.568Z,15.64
2018-09-27T20:29:48.407Z,15.59
2018-09-27T20:32:17.240Z,15.77
2018-09-27T20:34:46.107Z,15.66
2018-09-27T20:37:14.968Z,15.58
2018-09-27T20:39:43.830Z,15.51
2018-09-27T20:42:12.701Z,15.47
2018-09-27T20:44:41.513Z,15.60
2018-09-27T20:47:10.521Z,15.61
2018-09-27T20:49:39.397Z,15.57
2018-09-27T20:52:08.288Z,15.53
2018-09-27T20:54:37.104Z,15.51
2018-09-27T20:57:06.266Z,15.51
2018-09-27T20:59:35.100Z,15.52
2018-09-27T21:02:04.032Z,15.45
2018-09-27T21:04:32.828Z,15.47
2018-09-27T21:07:02.037Z,15.34
2018-09-27T21:09:31.264Z,15.37
2018-09-27T21:12:00.222Z,15.33
2018-09-27T21:14:29.078Z,15.25
2018-09-27T21:16:57.932Z,15.40
2018-09-27T21:19:26.746Z,15.43
2018-09-27T21:21:55.609Z,15.48
2018-09-27T21:24:24.394Z,15.34
2018-09-27T21:26:53.577Z,15.32
2018-09-27T21:29:22.350Z,15.38
2018-09-27T21:31:51.199Z,15.36
2018-09-27T21:34:20.012Z,15.48
2018-09-27T21:36:48.859Z,15.18
2018-09-27T21:39:17.736Z,15.28
2018-09-27T21:41:46.530Z,15.27
2018-09-27T21:44:15.397Z,15.18
2018-09-27T21:46:44.186Z,15.07
2018-09-27T21:49:13.024Z,15.00
2018-09-27T21:51:41.990Z,14.98
2018-09-27T21:54:10.904Z,14.89
2018-09-27T21:56:39.729Z,14.91
2018-09-27T21:59:08.645Z,14.69
2018-09-27T22:01:37.502Z,14.83
2018-09-27T22:04:06.829Z,14.90
2018-09-27T22:06:35.684Z,14.67
2018-09-27T22:09:07.616Z,14.84
2018-09-27T22:11:36.612Z,14.70
2018-09-27T22:14:05.912Z,14.85
2018-09-27T22:16:34.949Z,14.81
2018-09-27T22:19:03.865Z,14.79
2018-09-27T22:21:32.714Z,14.91
2018-09-27T22:24:01.623Z,15.09
2018-09-27T22:26:30.461Z,15.10
2018-09-27T22:28:59.404Z,15.13
2018-09-27T22:31:28.266Z,14.98
2018-09-27T22:33:57.327Z,15.03
2018-09-27T22:36:26.182Z,15.03
2018-09-27T22:38:55.047Z,15.10
2018-09-27T22:41:23.994Z,15.09
2018-09-27T22:43:52.825Z,15.05
2018-09-27T22:46:21.694Z,15.02
2018-09-27T22:48:50.506Z,15.02
2018-09-27T22:51:19.397Z,15.09
2018-09-27T22:53:48.346Z,15.11
2018-09-27T22:56:17.226Z,15.09
2018-09-27T22:58:46.059Z,15.26
2018-09-27T23:01:14.970Z,15.13
2018-09-27T23:03:43.786Z,15.14
2018-09-27T23:06:13.118Z,15.21
2018-09-27T23:08:41.958Z,15.19
2018-09-27T23:11:10.845Z,15.12
2018-09-27T23:13:39.698Z,15.08
2018-09-27T23:16:08.898Z,15.07
2018-09-27T23:18:37.821Z,15.02
2018-09-27T23:21:07.117Z,14.89
2018-09-27T23:23:36.031Z,15.08
2018-09-27T23:26:05.012Z,14.96
2018-09-27T23:28:33.814Z,15.00
2018-09-27T23:31:02.827Z,14.90
2018-09-27T23:33:31.737Z,14.76
2018-09-27T23:36:00.657Z,14.54
2018-09-27T23:38:29.546Z,14.63
2018-09-27T23:40:58.406Z,14.53
2018-09-27T23:43:27.359Z,14.55
2018-09-27T23:45:56.226Z,14.60
2018-09-27T23:48:25.408Z,14.48
2018-09-27T23:50:54.277Z,14.42
2018-09-27T23:53:23.252Z,14.49
2018-09-27T23:55:52.703Z,14.41
2018-09-27T23:58:21.623Z,14.51
